Time;durP1;ratioP1;P1;durP2;ratioP2;P2;SDS_P1;SDS_P2;PMS_P1;PMS_P2;Temp;Humidity;BMP_temperature;BMP_pressure;BME280_temperature;BME280_humidity;BME280_pressure;Samples;Min_cycle;Max_cycle;Signal;HPM_P1;HPM_P2
2022/09/08 05:10:20;;;;;;;27.30;24.30;;;;;;;17.60;100.00;100142.34;6585258;27;19940;-90
2022/09/08 05:13:23;;;;;;;26.45;23.65;;;;;;;17.82;100.00;100137.88;6614026;27;226463;-89
2022/09/08 05:16:27;;;;;;;28.30;23.12;;;;;;;17.94;100.00;100146.72;6632395;27;35351;-89
2022/09/08 05:19:31;;;;;;;27.13;22.25;;;;;;;17.96;100.00;100146.59;6611657;27;33000;-89
2022/09/08 05:22:33;;;;;;;25.02;22.33;;;;;;;18.05;100.00;100154.72;6615318;27;34011;-90
2022/09/08 05:25:36;;;;;;;25.08;22.37;;;;;;;18.13;100.00;100161.28;6613188;27;35090;-90
2022/09/08 05:28:40;;;;;;;23.60;21.08;;;;;;;18.05;100.00;100160.09;6613358;27;34535;-90
2022/09/08 05:31:44;;;;;;;24.25;21.65;;;;;;;18.23;100.00;100153.28;6594124;27;33794;-90
2022/09/08 05:34:46;;;;;;;26.40;22.15;;;;;;;18.29;100.00;100159.00;6610602;27;34029;-90
2022/09/08 05:37:49;;;;;;;28.33;22.10;;;;;;;18.21;100.00;100158.81;6606677;27;33778;-89
2022/09/08 05:40:52;;;;;;;26.27;21.80;;;;;;;18.21;100.00;100158.81;6607850;27;33739;-90
2022/09/08 05:43:56;;;;;;;24.30;21.70;;;;;;;18.40;100.00;100155.37;6607340;26;33988;-89
2022/09/08 06:06:11;;;;;;;24.00;21.30;;;;;;;19.57;94.44;100147.84;6613555;26;20079;-88
2022/09/08 06:09:14;;;;;;;27.05;21.33;;;;;;;19.81;91.88;100149.25;6611683;27;33720;-86
2022/09/08 06:12:17;;;;;;;25.27;21.00;;;;;;;19.93;90.71;100152.66;6606246;27;34704;-87
2022/09/08 06:15:20;;;;;;;24.52;21.40;;;;;;;20.19;89.10;100150.25;6588353;27;34043;-87
2022/09/08 06:18:25;;;;;;;26.48;21.67;;;;;;;20.29;87.80;100150.22;6613244;27;33765;-86
2022/09/08 06:21:31;;;;;;;20.62;18.45;;;;;;;20.45;86.29;100138.81;6597726;27;33934;-86
2022/09/08 06:24:34;;;;;;;22.83;19.70;;;;;;;20.74;85.97;100151.34;6604987;27;34110;-86
2022/09/08 06:28:10;;;;;;;21.90;19.30;;;;;;;20.80;82.82;100135.56;6584585;27;32344;-85
2022/09/08 06:31:16;;;;;;;23.25;19.55;;;;;;;21.00;81.61;100134.50;6605555;27;34203;-84
2022/09/08 06:34:27;;;;;;;21.58;18.77;;;;;;;21.27;79.37;100131.94;6605543;27;34248;-85
2022/09/08 06:37:41;;;;;;;20.97;18.13;;;;;;;21.33;80.56;100130.47;6605171;27;33905;-85
2022/09/08 06:40:49;;;;;;;25.25;17.80;;;;;;;21.59;78.18;100130.56;6585689;27;33611;-85
2022/09/08 06:43:58;;;;;;;18.85;16.08;;;;;;;21.65;76.87;100129.06;6605057;27;34869;-88
2022/09/08 06:47:00;;;;;;;20.67;15.52;;;;;;;21.79;75.11;100122.31;6604298;27;34001;-86
2022/09/08 06:50:06;;;;;;;20.58;16.52;;;;;;;22.03;75.38;100115.41;6606330;27;34207;-85
2022/09/08 06:53:17;;;;;;;21.48;15.73;;;;;;;22.06;73.86;100113.25;6590044;27;34181;-85
2022/09/08 06:56:28;;;;;;;19.02;15.63;;;;;;;22.24;73.44;100112.34;6594446;27;32943;-86
2022/09/08 07:00:03;;;;;;;18.60;16.27;;;;;;;22.11;73.65;100107.34;6617659;27;34292;-85
2022/09/08 07:03:35;;;;;;;18.80;15.60;;;;;;;22.13;72.81;100108.03;6592051;27;34295;-86
2022/09/08 07:07:14;;;;;;;20.85;15.23;;;;;;;22.73;71.69;100095.56;6604102;27;33796;-86
2022/09/08 07:10:21;;;;;;;17.87;15.85;;;;;;;22.91;69.44;100101.84;6555385;27;34330;-85
2022/09/08 07:13:51;;;;;;;23.75;15.88;;;;;;;22.82;70.21;100084.78;6585749;27;32899;-85
2022/09/08 07:17:09;;;;;;;20.20;15.00;;;;;;;23.10;69.73;100098.03;6587966;27;33117;-84
2022/09/08 07:20:12;;;;;;;18.55;14.68;;;;;;;22.95;69.27;100089.72;6606506;27;34533;-84
2022/09/08 07:23:24;;;;;;;19.30;15.00;;;;;;;23.30;69.46;100093.16;6606623;27;34309;-85
2022/09/08 07:26:37;;;;;;;23.12;15.88;;;;;;;24.04;66.11;100091.50;6607370;27;33941;-85
2022/09/08 07:29:47;;;;;;;18.87;14.25;;;;;;;25.12;62.51;100088.41;6607845;27;34100;-84
2022/09/08 07:33:01;;;;;;;15.90;13.80;;;;;;;25.08;61.61;100087.94;6606324;27;34311;-86
2022/09/08 07:36:45;;;;;;;15.15;13.40;;;;;;;24.97;62.09;100093.75;6611577;27;34085;-87
2022/09/08 07:39:56;;;;;;;18.27;13.68;;;;;;;25.64;57.99;100086.88;6611080;27;34089;-87
2022/09/08 07:42:58;;;;;;;19.33;12.43;;;;;;;26.24;55.97;100097.03;6610566;27;34007;-87
2022/09/08 07:46:20;;;;;;;14.32;12.82;;;;;;;26.34;56.38;100100.34;6613680;27;34218;-87
2022/09/08 07:49:51;;;;;;;18.45;12.90;;;;;;;26.07;55.64;100101.78;6610051;27;33854;-86
2022/09/08 07:53:14;;;;;;;16.90;12.10;;;;;;;26.88;53.88;100106.47;6595377;27;32376;-85
2022/09/08 07:56:45;;;;;;;13.88;12.02;;;;;;;27.44;52.20;100106.88;6596792;27;34472;-86
2022/09/08 08:00:13;;;;;;;16.65;12.48;;;;;;;28.75;48.14;100109.31;6623202;26;35116;-85
2022/09/08 08:03:31;;;;;;;14.65;12.40;;;;;;;29.01;46.61;100113.25;6623476;27;34782;-86
2022/09/08 08:06:40;;;;;;;16.55;13.15;;;;;;;29.64;44.67;100109.41;6622787;27;34048;-85
2022/09/08 08:09:51;;;;;;;17.90;13.38;;;;;;;29.63;44.80;100110.47;6620220;27;33997;-86
2022/09/08 08:13:12;;;;;;;14.00;12.20;;;;;;;28.90;46.98;100107.34;6604232;27;35049;-86
2022/09/08 08:16:28;;;;;;;17.30;11.50;;;;;;;29.50;46.81;100113.19;6605729;27;34470;-85
2022/09/08 08:20:04;;;;;;;15.50;13.18;;;;;;;29.63;45.61;100121.41;6567339;27;32987;-89
2022/09/08 08:23:38;;;;;;;14.23;12.30;;;;;;;29.24;46.22;100126.56;6586444;27;32935;-87
2022/09/08 08:26:57;;;;;;;13.15;11.73;;;;;;;28.46;47.18;100122.22;6605298;27;34456;-87
2022/09/08 08:30:21;;;;;;;16.52;11.85;;;;;;;28.79;48.03;100118.81;6585830;27;34846;-88
2022/09/08 08:33:35;;;;;;;12.80;11.50;;;;;;;29.25;46.66;100111.03;6586623;27;33801;-86
2022/09/08 08:36:43;;;;;;;12.65;11.27;;;;;;;29.29;45.49;100117.72;6586389;27;34522;-87
2022/09/08 08:39:49;;;;;;;22.25;12.77;;;;;;;28.67;48.12;100112.25;6605333;27;34163;-86
2022/09/08 08:43:04;;;;;;;13.38;12.10;;;;;;;28.44;47.44;100116.94;6610179;27;33839;-88
2022/09/08 08:46:33;;;;;;;17.98;11.05;;;;;;;28.29;48.64;100108.03;6605384;27;35046;-89
2022/09/08 08:49:57;;;;;;;13.33;11.53;;;;;;;28.87;47.98;100118.66;6606512;27;33969;-87
2022/09/08 08:53:17;;;;;;;16.62;12.18;;;;;;;29.02;47.11;100115.75;6606185;27;32348;-89
2022/09/08 08:56:41;;;;;;;20.90;11.43;;;;;;;29.77;45.97;100116.75;6579195;26;32658;-88
2022/09/08 09:00:02;;;;;;;13.25;11.52;;;;;;;30.02;45.94;100104.34;6599379;26;33674;-87
2022/09/08 09:03:15;;;;;;;12.52;11.20;;;;;;;30.72;44.24;100101.06;6589394;27;32965;-89
2022/09/08 09:06:23;;;;;;;13.00;11.35;;;;;;;30.68;43.41;100091.63;6604761;27;33577;-87
2022/09/08 09:09:56;;;;;;;15.90;11.65;;;;;;;30.76;43.49;100091.37;6606535;27;34029;-88
2022/09/08 09:13:26;;;;;;;17.65;11.10;;;;;;;30.50;43.76;100084.06;6586954;27;32888;-88
2022/09/08 09:16:48;;;;;;;14.27;11.73;;;;;;;31.17;42.33;100082.94;6609744;27;33855;-88
2022/09/08 09:20:11;;;;;;;13.68;10.77;;;;;;;30.09;44.74;100066.94;6606847;27;33885;-88
2022/09/08 09:23:54;;;;;;;11.98;10.70;;;;;;;30.96;43.22;100062.22;6606513;27;33827;-88
2022/09/08 09:26:58;;;;;;;13.13;11.55;;;;;;;31.44;41.57;100050.75;6584461;27;33795;-88
2022/09/08 09:30:39;;;;;;;17.40;11.38;;;;;;;31.11;42.55;100056.44;6607318;27;34537;-88
2022/09/08 09:34:00;;;;;;;16.73;10.57;;;;;;;30.88;42.92;100044.13;6587399;27;32866;-88
2022/09/08 09:37:25;;;;;;;15.95;11.63;;;;;;;31.76;41.65;100040.78;6587101;27;33120;-87
2022/09/08 09:40:40;;;;;;;16.92;11.15;;;;;;;31.09;42.21;100044.84;6588332;27;33859;-88
2022/09/08 09:44:10;;;;;;;14.52;11.80;;;;;;;30.89;43.13;100049.41;6585241;27;32981;-88
2022/09/08 09:47:25;;;;;;;17.85;11.02;;;;;;;30.74;42.29;100051.56;6590650;27;33728;-89
2022/09/08 09:50:49;;;;;;;11.80;10.70;;;;;;;31.02;43.41;100047.66;6586536;27;33483;-89
2022/09/08 09:54:17;;;;;;;11.43;10.30;;;;;;;32.20;41.73;100030.63;6610303;27;34169;-89
2022/09/08 09:57:58;;;;;;;14.35;9.70;;;;;;;32.27;40.66;100022.31;6590688;27;32594;-89
2022/09/08 10:01:06;;;;;;;11.05;9.85;;;;;;;32.78;39.85;100033.94;6591818;27;34858;-89
2022/09/08 10:04:37;;;;;;;12.43;9.50;;;;;;;32.49;39.76;100025.44;6612672;27;34282;-90
2022/09/08 10:08:05;;;;;;;10.55;9.50;;;;;;;32.92;39.31;100023.59;6620913;26;35174;-91
2022/09/08 10:11:23;;;;;;;10.68;9.07;;;;;;;32.92;38.10;100020.84;6620582;26;34186;-91
2022/09/08 10:15:17;;;;;;;13.30;9.25;;;;;;;34.49;35.52;100008.84;6611994;27;35551;-88
2022/09/08 10:18:41;;;;;;;18.65;9.13;;;;;;;35.31;33.66;100004.03;6590923;27;33882;-89
2022/09/08 13:00:20;;;;;;;11.02;3.75;;;;;;;30.05;42.57;99910.63;6582599;27;20087;-90
2022/09/08 13:03:39;;;;;;;3.95;3.03;;;;;;;29.95;42.46;99911.09;6576033;27;34152;-90
2022/09/08 13:07:01;;;;;;;8.68;3.55;;;;;;;29.97;41.70;99906.22;6580220;27;33893;-89
2022/09/08 13:10:40;;;;;;;7.95;3.70;;;;;;;29.79;42.08;99914.28;6560645;27;33878;-89
2022/09/08 13:13:44;;;;;;;10.05;3.35;;;;;;;29.71;42.32;99901.69;6559705;27;33539;-89
2022/09/08 13:17:03;;;;;;;7.90;3.03;;;;;;;29.83;41.44;99904.63;6580631;27;34165;-90
2022/09/08 13:20:19;;;;;;;6.97;3.53;;;;;;;29.91;41.60;99896.16;6582414;27;34913;-89
2022/09/08 13:23:45;;;;;;;9.60;3.67;;;;;;;29.95;41.75;99896.56;6559748;27;32539;-89
2022/09/08 13:26:48;;;;;;;10.27;3.97;;;;;;;29.56;41.95;99883.66;6570221;27;34553;-88
2022/09/08 13:30:03;;;;;;;6.45;3.47;;;;;;;29.48;43.21;99872.13;6578541;27;34114;-88
2022/09/08 13:33:46;;;;;;;10.63;3.55;;;;;;;29.50;43.11;99868.12;6559527;27;33719;-92
2022/09/08 13:37:07;;;;;;;10.40;4.37;;;;;;;29.66;42.39;99861.34;6559192;27;32553;-88
2022/09/08 13:40:30;;;;;;;7.93;3.70;;;;;;;29.75;42.06;99859.22;6559580;27;33655;-89
2022/09/08 13:44:08;;;;;;;9.45;3.83;;;;;;;29.72;42.33;99852.28;6579217;27;33788;-88
2022/09/08 13:47:36;;;;;;;8.52;3.42;;;;;;;29.72;41.86;99855.03;6559533;27;33826;-88
2022/09/08 13:50:48;;;;;;;6.30;3.37;;;;;;;29.43;42.88;99857.22;6578736;27;34503;-88
2022/09/08 13:54:06;;;;;;;13.10;3.40;;;;;;;29.55;41.62;99859.28;6580283;27;33395;-89
2022/09/08 13:57:23;;;;;;;8.30;3.50;;;;;;;29.30;42.54;99851.75;6579880;27;34088;-88
2022/09/08 14:00:26;;;;;;;7.05;3.37;;;;;;;29.11;43.33;99850.75;6580144;27;34321;-89
2022/09/08 14:03:34;;;;;;;6.32;3.53;;;;;;;29.03;43.74;99849.94;6579307;27;33903;-89
2022/09/08 14:07:06;;;;;;;9.60;3.80;;;;;;;28.72;44.37;99856.84;6579918;27;34655;-89
2022/09/08 14:10:13;;;;;;;10.68;3.67;;;;;;;28.76;44.62;99852.62;6550252;27;32883;-89
2022/09/08 14:13:32;;;;;;;7.45;3.75;;;;;;;28.98;44.62;99836.06;6578358;27;34583;-88
2022/09/08 14:16:35;;;;;;;;;;;;;;;28.72;45.84;99845.06;6580435;27;34700;-89
2022/09/08 14:20:14;;;;;;;7.37;3.65;;;;;;;28.78;46.13;99850.53;6561293;27;35608;-89
2022/09/08 14:23:40;;;;;;;10.00;4.13;;;;;;;28.58;46.63;99830.56;6556314;27;32443;-89
2022/09/08 14:26:48;;;;;;;7.87;4.05;;;;;;;28.51;46.78;99823.22;6568396;27;34301;-89
2022/09/08 15:00:38;;;;;;;21.83;8.45;;;;;;;24.18;87.14;99901.16;6600947;26;20044;-89
2022/09/08 15:07:26;;;;;;;14.93;5.85;;;;;;;21.15;100.00;99848.13;6601417;26;20067;-89
2022/09/08 15:10:44;;;;;;;11.30;6.10;;;;;;;20.90;100.00;99849.78;6603845;26;33983;-89
2022/09/08 15:14:24;;;;;;;15.15;6.15;;;;;;;20.76;100.00;99851.19;6602372;26;33934;-89
2022/09/08 15:17:33;;;;;;;11.27;6.53;;;;;;;20.73;100.00;99849.66;6599918;26;34163;-91
